sensor_id;sensor_type;location;lat;lon;timestamp;P1;durP1;ratioP1;P2;durP2;ratioP2
31694;SDS011;18289;51.330;4.946;2024-03-17T00:00:14;12.88;;;10.00;;
31694;SDS011;18289;51.330;4.946;2024-03-17T00:02:43;12.27;;;9.77;;
31694;SDS011;18289;51.330;4.946;2024-03-17T00:05:09;14.43;;;10.30;;
31694;SDS011;18289;51.330;4.946;2024-03-17T00:07:35;13.13;;;9.20;;
31694;SDS011;18289;51.330;4.946;2024-03-17T00:10:00;13.82;;;9.35;;
31694;SDS011;18289;51.330;4.946;2024-03-17T00:12:26;13.90;;;10.18;;
31694;SDS011;18289;51.330;4.946;2024-03-17T00:14:52;13.15;;;9.27;;
31694;SDS011;18289;51.330;4.946;2024-03-17T00:17:17;11.30;;;9.55;;
31694;SDS011;18289;51.330;4.946;2024-03-17T00:19:45;11.75;;;8.65;;
31694;SDS011;18289;51.330;4.946;2024-03-17T00:22:12;10.75;;;9.35;;
31694;SDS011;18289;51.330;4.946;2024-03-17T00:24:39;13.43;;;10.10;;
31694;SDS011;18289;51.330;4.946;2024-03-17T00:27:05;11.50;;;9.60;;
31694;SDS011;18289;51.330;4.946;2024-03-17T00:29:31;15.15;;;9.23;;
31694;SDS011;18289;51.330;4.946;2024-03-17T00:31:57;10.80;;;8.63;;
31694;SDS011;18289;51.330;4.946;2024-03-17T00:34:24;11.13;;;9.13;;
31694;SDS011;18289;51.330;4.946;2024-03-17T00:36:49;15.65;;;9.00;;
31694;SDS011;18289;51.330;4.946;2024-03-17T00:39:16;11.30;;;9.20;;
31694;SDS011;18289;51.330;4.946;2024-03-17T00:41:43;12.93;;;9.57;;
31694;SDS011;18289;51.330;4.946;2024-03-17T00:44:09;10.77;;;9.30;;
31694;SDS011;18289;51.330;4.946;2024-03-17T00:46:35;12.00;;;9.68;;
31694;SDS011;18289;51.330;4.946;2024-03-17T00:49:00;12.15;;;9.90;;
31694;SDS011;18289;51.330;4.946;2024-03-17T00:51:26;12.55;;;9.70;;
31694;SDS011;18289;51.330;4.946;2024-03-17T00:53:52;11.43;;;9.18;;
31694;SDS011;18289;51.330;4.946;2024-03-17T00:56:17;12.07;;;8.93;;
31694;SDS011;18289;51.330;4.946;2024-03-17T00:58:43;10.57;;;9.07;;
31694;SDS011;18289;51.330;4.946;2024-03-17T01:01:12;11.10;;;9.68;;
31694;SDS011;18289;51.330;4.946;2024-03-17T01:03:38;12.15;;;9.88;;
31694;SDS011;18289;51.330;4.946;2024-03-17T01:06:04;11.77;;;9.00;;
31694;SDS011;18289;51.330;4.946;2024-03-17T01:08:30;12.60;;;9.40;;
31694;SDS011;18289;51.330;4.946;2024-03-17T01:10:56;13.40;;;10.07;;
31694;SDS011;18289;51.330;4.946;2024-03-17T01:13:23;11.27;;;9.50;;
31694;SDS011;18289;51.330;4.946;2024-03-17T01:15:51;12.85;;;9.90;;
31694;SDS011;18289;51.330;4.946;2024-03-17T01:18:17;13.80;;;9.38;;
31694;SDS011;18289;51.330;4.946;2024-03-17T01:20:43;12.80;;;8.82;;
31694;SDS011;18289;51.330;4.946;2024-03-17T01:23:09;14.57;;;10.43;;
31694;SDS011;18289;51.330;4.946;2024-03-17T01:25:35;13.13;;;10.07;;
31694;SDS011;18289;51.330;4.946;2024-03-17T01:28:05;12.48;;;9.40;;
31694;SDS011;18289;51.330;4.946;2024-03-17T01:30:31;10.93;;;9.45;;
31694;SDS011;18289;51.330;4.946;2024-03-17T01:32:59;12.43;;;9.27;;
31694;SDS011;18289;51.330;4.946;2024-03-17T01:35:26;11.75;;;9.50;;
31694;SDS011;18289;51.330;4.946;2024-03-17T01:37:51;12.15;;;9.63;;
31694;SDS011;18289;51.330;4.946;2024-03-17T01:40:17;10.38;;;8.98;;
31694;SDS011;18289;51.330;4.946;2024-03-17T01:42:43;12.63;;;9.77;;
31694;SDS011;18289;51.330;4.946;2024-03-17T01:45:20;10.15;;;9.07;;
31694;SDS011;18289;51.330;4.946;2024-03-17T01:47:54;12.90;;;8.88;;
31694;SDS011;18289;51.330;4.946;2024-03-17T01:50:24;13.57;;;9.95;;
31694;SDS011;18289;51.330;4.946;2024-03-17T01:52:57;13.98;;;9.95;;
31694;SDS011;18289;51.330;4.946;2024-03-17T01:55:28;12.53;;;9.73;;
31694;SDS011;18289;51.330;4.946;2024-03-17T01:57:53;11.52;;;9.32;;
31694;SDS011;18289;51.330;4.946;2024-03-17T02:00:20;12.95;;;8.80;;
31694;SDS011;18289;51.330;4.946;2024-03-17T02:02:46;10.57;;;9.35;;
31694;SDS011;18289;51.330;4.946;2024-03-17T02:05:12;9.70;;;8.68;;
31694;SDS011;18289;51.330;4.946;2024-03-17T02:07:38;11.07;;;8.52;;
31694;SDS011;18289;51.330;4.946;2024-03-17T02:10:04;12.77;;;9.30;;
31694;SDS011;18289;51.330;4.946;2024-03-17T02:12:30;11.13;;;8.82;;
31694;SDS011;18289;51.330;4.946;2024-03-17T02:14:58;9.38;;;8.38;;
31694;SDS011;18289;51.330;4.946;2024-03-17T02:17:24;10.57;;;8.65;;
31694;SDS011;18289;51.330;4.946;2024-03-17T02:19:50;9.60;;;8.38;;
31694;SDS011;18289;51.330;4.946;2024-03-17T02:22:17;13.13;;;8.73;;
31694;SDS011;18289;51.330;4.946;2024-03-17T02:24:43;9.60;;;8.07;;
31694;SDS011;18289;51.330;4.946;2024-03-17T02:27:09;11.05;;;8.98;;
31694;SDS011;18289;51.330;4.946;2024-03-17T02:29:35;10.13;;;8.18;;
31694;SDS011;18289;51.330;4.946;2024-03-17T02:32:04;10.38;;;8.68;;
31694;SDS011;18289;51.330;4.946;2024-03-17T02:34:34;10.57;;;8.52;;
31694;SDS011;18289;51.330;4.946;2024-03-17T02:37:01;10.75;;;8.88;;
31694;SDS011;18289;51.330;4.946;2024-03-17T02:39:28;11.15;;;8.43;;
31694;SDS011;18289;51.330;4.946;2024-03-17T02:42:02;8.85;;;7.63;;
31694;SDS011;18289;51.330;4.946;2024-03-17T02:44:30;9.95;;;8.35;;
31694;SDS011;18289;51.330;4.946;2024-03-17T02:46:57;12.77;;;9.00;;
31694;SDS011;18289;51.330;4.946;2024-03-17T02:49:28;10.27;;;8.70;;
31694;SDS011;18289;51.330;4.946;2024-03-17T02:52:00;10.70;;;7.70;;
31694;SDS011;18289;51.330;4.946;2024-03-17T02:54:26;12.25;;;7.80;;
31694;SDS011;18289;51.330;4.946;2024-03-17T02:56:52;10.55;;;8.48;;
31694;SDS011;18289;51.330;4.946;2024-03-17T02:59:18;8.13;;;6.72;;
31694;SDS011;18289;51.330;4.946;2024-03-17T03:01:43;10.88;;;8.93;;
31694;SDS011;18289;51.330;4.946;2024-03-17T03:04:10;9.57;;;8.52;;
31694;SDS011;18289;51.330;4.946;2024-03-17T03:06:36;11.77;;;8.73;;
31694;SDS011;18289;51.330;4.946;2024-03-17T03:09:03;11.65;;;8.55;;
31694;SDS011;18289;51.330;4.946;2024-03-17T03:11:35;11.13;;;7.93;;
31694;SDS011;18289;51.330;4.946;2024-03-17T03:14:01;9.57;;;8.27;;
31694;SDS011;18289;51.330;4.946;2024-03-17T03:16:27;11.68;;;8.18;;
31694;SDS011;18289;51.330;4.946;2024-03-17T03:18:53;11.48;;;8.40;;
31694;SDS011;18289;51.330;4.946;2024-03-17T03:21:19;10.25;;;8.63;;
31694;SDS011;18289;51.330;4.946;2024-03-17T03:23:46;12.80;;;8.73;;
31694;SDS011;18289;51.330;4.946;2024-03-17T03:26:12;12.93;;;9.07;;
31694;SDS011;18289;51.330;4.946;2024-03-17T03:28:38;10.10;;;7.75;;
31694;SDS011;18289;51.330;4.946;2024-03-17T03:31:04;9.30;;;8.25;;
31694;SDS011;18289;51.330;4.946;2024-03-17T03:35:58;11.50;;;8.52;;
31694;SDS011;18289;51.330;4.946;2024-03-17T03:38:23;13.95;;;9.50;;
31694;SDS011;18289;51.330;4.946;2024-03-17T03:40:50;11.85;;;8.77;;
31694;SDS011;18289;51.330;4.946;2024-03-17T03:43:17;11.45;;;8.60;;
31694;SDS011;18289;51.330;4.946;2024-03-17T03:45:43;9.48;;;8.27;;
31694;SDS011;18289;51.330;4.946;2024-03-17T03:48:09;12.05;;;8.52;;
31694;SDS011;18289;51.330;4.946;2024-03-17T03:50:35;11.68;;;9.20;;
31694;SDS011;18289;51.330;4.946;2024-03-17T03:53:02;9.98;;;8.15;;
31694;SDS011;18289;51.330;4.946;2024-03-17T03:55:28;11.00;;;8.60;;
31694;SDS011;18289;51.330;4.946;2024-03-17T03:57:54;11.90;;;8.98;;
31694;SDS011;18289;51.330;4.946;2024-03-17T04:00:20;10.50;;;8.13;;
31694;SDS011;18289;51.330;4.946;2024-03-17T04:02:47;10.93;;;8.73;;
31694;SDS011;18289;51.330;4.946;2024-03-17T04:05:14;12.15;;;9.07;;
31694;SDS011;18289;51.330;4.946;2024-03-17T04:07:40;10.63;;;8.27;;
31694;SDS011;18289;51.330;4.946;2024-03-17T04:10:08;13.70;;;9.32;;
31694;SDS011;18289;51.330;4.946;2024-03-17T04:12:35;13.18;;;8.82;;
31694;SDS011;18289;51.330;4.946;2024-03-17T04:15:01;13.93;;;9.07;;
31694;SDS011;18289;51.330;4.946;2024-03-17T04:17:27;11.60;;;8.68;;
31694;SDS011;18289;51.330;4.946;2024-03-17T04:19:53;12.13;;;9.10;;
31694;SDS011;18289;51.330;4.946;2024-03-17T04:22:19;10.20;;;8.07;;
31694;SDS011;18289;51.330;4.946;2024-03-17T04:24:47;11.68;;;9.40;;
31694;SDS011;18289;51.330;4.946;2024-03-17T04:27:18;12.80;;;9.07;;
31694;SDS011;18289;51.330;4.946;2024-03-17T04:29:47;12.70;;;8.70;;
31694;SDS011;18289;51.330;4.946;2024-03-17T04:32:13;11.77;;;8.25;;
31694;SDS011;18289;51.330;4.946;2024-03-17T04:34:39;12.75;;;9.32;;
31694;SDS011;18289;51.330;4.946;2024-03-17T04:37:05;13.02;;;8.75;;
31694;SDS011;18289;51.330;4.946;2024-03-17T04:39:31;13.15;;;8.98;;
31694;SDS011;18289;51.330;4.946;2024-03-17T04:41:57;11.45;;;8.85;;
31694;SDS011;18289;51.330;4.946;2024-03-17T04:44:22;11.95;;;8.40;;
31694;SDS011;18289;51.330;4.946;2024-03-17T04:46:48;16.02;;;8.77;;
31694;SDS011;18289;51.330;4.946;2024-03-17T04:49:14;13.82;;;8.73;;
31694;SDS011;18289;51.330;4.946;2024-03-17T04:51:39;10.40;;;8.73;;
31694;SDS011;18289;51.330;4.946;2024-03-17T04:54:05;9.65;;;8.00;;
31694;SDS011;18289;51.330;4.946;2024-03-17T04:56:32;10.45;;;7.80;;
31694;SDS011;18289;51.330;4.946;2024-03-17T04:58:58;12.00;;;8.02;;
31694;SDS011;18289;51.330;4.946;2024-03-17T05:01:24;11.80;;;7.88;;
31694;SDS011;18289;51.330;4.946;2024-03-17T05:03:53;12.02;;;8.95;;
31694;SDS011;18289;51.330;4.946;2024-03-17T05:06:19;10.68;;;8.27;;
31694;SDS011;18289;51.330;4.946;2024-03-17T05:08:44;8.90;;;7.43;;
31694;SDS011;18289;51.330;4.946;2024-03-17T05:11:10;13.73;;;8.43;;
31694;SDS011;18289;51.330;4.946;2024-03-17T05:13:37;10.77;;;7.53;;
31694;SDS011;18289;51.330;4.946;2024-03-17T05:16:05;10.55;;;8.30;;
31694;SDS011;18289;51.330;4.946;2024-03-17T05:18:31;10.32;;;7.97;;
31694;SDS011;18289;51.330;4.946;2024-03-17T05:23:27;10.33;;;8.50;;
31694;SDS011;18289;51.330;4.946;2024-03-17T05:25:53;10.45;;;7.90;;
31694;SDS011;18289;51.330;4.946;2024-03-17T05:28:20;10.00;;;7.95;;
31694;SDS011;18289;51.330;4.946;2024-03-17T05:30:46;11.02;;;7.60;;
31694;SDS011;18289;51.330;4.946;2024-03-17T05:33:13;9.00;;;7.60;;
31694;SDS011;18289;51.330;4.946;2024-03-17T05:35:38;11.18;;;7.93;;
31694;SDS011;18289;51.330;4.946;2024-03-17T05:38:04;10.90;;;8.07;;
31694;SDS011;18289;51.330;4.946;2024-03-17T05:40:30;11.63;;;9.18;;
31694;SDS011;18289;51.330;4.946;2024-03-17T05:42:56;11.68;;;8.15;;
31694;SDS011;18289;51.330;4.946;2024-03-17T05:45:22;12.52;;;8.93;;
31694;SDS011;18289;51.330;4.946;2024-03-17T05:47:49;11.43;;;8.15;;
31694;SDS011;18289;51.330;4.946;2024-03-17T05:50:15;10.77;;;8.15;;
31694;SDS011;18289;51.330;4.946;2024-03-17T05:52:41;10.85;;;8.38;;
31694;SDS011;18289;51.330;4.946;2024-03-17T05:55:07;14.65;;;9.07;;
31694;SDS011;18289;51.330;4.946;2024-03-17T05:57:32;11.27;;;9.10;;
31694;SDS011;18289;51.330;4.946;2024-03-17T05:59:58;11.90;;;8.48;;
31694;SDS011;18289;51.330;4.946;2024-03-17T06:02:24;11.32;;;8.57;;
31694;SDS011;18289;51.330;4.946;2024-03-17T06:04:49;16.08;;;9.50;;
31694;SDS011;18289;51.330;4.946;2024-03-17T06:07:15;11.82;;;8.68;;
31694;SDS011;18289;51.330;4.946;2024-03-17T06:09:41;11.50;;;9.10;;
31694;SDS011;18289;51.330;4.946;2024-03-17T06:12:06;11.18;;;8.15;;
31694;SDS011;18289;51.330;4.946;2024-03-17T06:14:32;12.10;;;8.82;;
31694;SDS011;18289;51.330;4.946;2024-03-17T06:16:59;12.07;;;8.68;;
31694;SDS011;18289;51.330;4.946;2024-03-17T06:19:25;9.02;;;8.13;;
31694;SDS011;18289;51.330;4.946;2024-03-17T06:21:51;8.50;;;7.63;;
31694;SDS011;18289;51.330;4.946;2024-03-17T06:24:16;11.10;;;8.32;;
31694;SDS011;18289;51.330;4.946;2024-03-17T06:26:42;9.52;;;7.82;;
31694;SDS011;18289;51.330;4.946;2024-03-17T06:29:08;11.30;;;7.90;;
31694;SDS011;18289;51.330;4.946;2024-03-17T06:31:33;11.88;;;7.88;;
31694;SDS011;18289;51.330;4.946;2024-03-17T06:33:59;10.70;;;7.95;;
31694;SDS011;18289;51.330;4.946;2024-03-17T06:36:25;9.70;;;8.10;;
31694;SDS011;18289;51.330;4.946;2024-03-17T06:38:50;9.45;;;7.75;;
31694;SDS011;18289;51.330;4.946;2024-03-17T06:41:16;8.40;;;7.53;;
31694;SDS011;18289;51.330;4.946;2024-03-17T06:43:42;9.13;;;7.85;;
31694;SDS011;18289;51.330;4.946;2024-03-17T06:46:08;10.82;;;7.20;;
31694;SDS011;18289;51.330;4.946;2024-03-17T06:48:34;8.82;;;6.80;;
31694;SDS011;18289;51.330;4.946;2024-03-17T06:51:00;8.45;;;7.57;;
31694;SDS011;18289;51.330;4.946;2024-03-17T06:53:26;10.77;;;7.70;;
31694;SDS011;18289;51.330;4.946;2024-03-17T06:55:52;8.25;;;6.57;;
31694;SDS011;18289;51.330;4.946;2024-03-17T06:58:22;8.55;;;7.03;;
31694;SDS011;18289;51.330;4.946;2024-03-17T07:00:52;8.60;;;6.88;;
31694;SDS011;18289;51.330;4.946;2024-03-17T07:03:22;7.65;;;6.45;;
31694;SDS011;18289;51.330;4.946;2024-03-17T07:05:52;7.10;;;6.40;;
31694;SDS011;18289;51.330;4.946;2024-03-17T07:08:20;8.20;;;7.05;;
31694;SDS011;18289;51.330;4.946;2024-03-17T07:10:59;7.13;;;6.25;;
31694;SDS011;18289;51.330;4.946;2024-03-17T07:13:28;8.25;;;6.47;;
31694;SDS011;18289;51.330;4.946;2024-03-17T07:15:59;9.07;;;6.65;;
31694;SDS011;18289;51.330;4.946;2024-03-17T07:18:26;8.38;;;6.43;;
31694;SDS011;18289;51.330;4.946;2024-03-17T07:20:56;7.60;;;6.20;;
31694;SDS011;18289;51.330;4.946;2024-03-17T07:23:22;8.90;;;6.60;;
31694;SDS011;18289;51.330;4.946;2024-03-17T07:25:51;7.60;;;6.15;;
31694;SDS011;18289;51.330;4.946;2024-03-17T07:28:23;8.32;;;6.97;;
31694;SDS011;18289;51.330;4.946;2024-03-17T07:30:49;8.25;;;6.57;;
31694;SDS011;18289;51.330;4.946;2024-03-17T07:33:20;8.70;;;5.95;;
31694;SDS011;18289;51.330;4.946;2024-03-17T07:35:56;8.65;;;6.03;;
31694;SDS011;18289;51.330;4.946;2024-03-17T07:38:25;8.02;;;5.88;;
31694;SDS011;18289;51.330;4.946;2024-03-17T07:41:07;8.68;;;6.15;;
31694;SDS011;18289;51.330;4.946;2024-03-17T07:43:34;9.27;;;6.75;;
31694;SDS011;18289;51.330;4.946;2024-03-17T07:48:29;6.97;;;6.13;;
31694;SDS011;18289;51.330;4.946;2024-03-17T07:50:56;8.93;;;6.70;;
31694;SDS011;18289;51.330;4.946;2024-03-17T07:53:26;7.53;;;6.55;;
31694;SDS011;18289;51.330;4.946;2024-03-17T07:58:31;7.63;;;6.82;;
31694;SDS011;18289;51.330;4.946;2024-03-17T08:01:01;7.38;;;6.00;;
31694;SDS011;18289;51.330;4.946;2024-03-17T08:03:28;9.27;;;6.30;;
31694;SDS011;18289;51.330;4.946;2024-03-17T08:05:56;10.70;;;7.80;;
31694;SDS011;18289;51.330;4.946;2024-03-17T08:08:23;14.50;;;8.43;;
31694;SDS011;18289;51.330;4.946;2024-03-17T08:10:49;6.80;;;6.10;;
31694;SDS011;18289;51.330;4.946;2024-03-17T08:13:15;6.90;;;6.18;;
31694;SDS011;18289;51.330;4.946;2024-03-17T08:15:42;7.32;;;6.57;;
31694;SDS011;18289;51.330;4.946;2024-03-17T08:18:08;6.95;;;5.68;;
31694;SDS011;18289;51.330;4.946;2024-03-17T08:20:38;7.75;;;6.20;;
31694;SDS011;18289;51.330;4.946;2024-03-17T08:23:04;6.95;;;6.07;;
31694;SDS011;18289;51.330;4.946;2024-03-17T08:25:31;9.90;;;6.90;;
31694;SDS011;18289;51.330;4.946;2024-03-17T08:27:59;6.72;;;5.13;;
31694;SDS011;18289;51.330;4.946;2024-03-17T08:30:26;6.70;;;6.00;;
31694;SDS011;18289;51.330;4.946;2024-03-17T08:32:51;8.27;;;5.82;;
31694;SDS011;18289;51.330;4.946;2024-03-17T08:35:17;7.65;;;5.53;;
31694;SDS011;18289;51.330;4.946;2024-03-17T08:37:43;6.82;;;5.63;;
31694;SDS011;18289;51.330;4.946;2024-03-17T08:40:10;7.60;;;5.75;;
31694;SDS011;18289;51.330;4.946;2024-03-17T08:42:37;6.65;;;5.40;;
31694;SDS011;18289;51.330;4.946;2024-03-17T08:45:02;6.57;;;5.28;;
31694;SDS011;18289;51.330;4.946;2024-03-17T08:47:29;7.70;;;5.47;;
31694;SDS011;18289;51.330;4.946;2024-03-17T08:49:54;5.90;;;5.07;;
31694;SDS011;18289;51.330;4.946;2024-03-17T08:52:20;7.15;;;5.32;;
31694;SDS011;18289;51.330;4.946;2024-03-17T08:54:46;7.88;;;5.03;;
31694;SDS011;18289;51.330;4.946;2024-03-17T08:57:16;6.78;;;5.25;;
31694;SDS011;18289;51.330;4.946;2024-03-17T08:59:42;8.75;;;5.22;;
31694;SDS011;18289;51.330;4.946;2024-03-17T09:02:10;7.97;;;4.80;;
31694;SDS011;18289;51.330;4.946;2024-03-17T09:04:39;8.05;;;5.10;;
31694;SDS011;18289;51.330;4.946;2024-03-17T09:07:04;5.95;;;4.95;;
31694;SDS011;18289;51.330;4.946;2024-03-17T09:09:30;5.60;;;4.63;;
31694;SDS011;18289;51.330;4.946;2024-03-17T09:11:56;5.20;;;4.60;;
31694;SDS011;18289;51.330;4.946;2024-03-17T09:14:21;5.40;;;4.70;;
31694;SDS011;18289;51.330;4.946;2024-03-17T09:16:47;5.32;;;3.65;;
31694;SDS011;18289;51.330;4.946;2024-03-17T09:19:13;5.55;;;4.03;;
31694;SDS011;18289;51.330;4.946;2024-03-17T09:21:39;4.93;;;4.13;;
31694;SDS011;18289;51.330;4.946;2024-03-17T09:24:05;6.60;;;4.10;;
31694;SDS011;18289;51.330;4.946;2024-03-17T09:26:35;6.57;;;3.80;;
31694;SDS011;18289;51.330;4.946;2024-03-17T09:29:01;4.28;;;3.33;;
31694;SDS011;18289;51.330;4.946;2024-03-17T09:31:27;5.55;;;3.80;;
31694;SDS011;18289;51.330;4.946;2024-03-17T09:33:52;4.30;;;3.67;;
31694;SDS011;18289;51.330;4.946;2024-03-17T09:36:18;5.15;;;3.70;;
31694;SDS011;18289;51.330;4.946;2024-03-17T09:38:44;5.88;;;3.90;;
31694;SDS011;18289;51.330;4.946;2024-03-17T09:41:21;5.10;;;3.58;;
31694;SDS011;18289;51.330;4.946;2024-03-17T09:43:58;4.30;;;3.90;;
31694;SDS011;18289;51.330;4.946;2024-03-17T09:46:24;4.88;;;3.72;;
31694;SDS011;18289;51.330;4.946;2024-03-17T09:48:55;5.15;;;3.60;;
31694;SDS011;18289;51.330;4.946;2024-03-17T09:51:23;3.85;;;3.55;;
31694;SDS011;18289;51.330;4.946;2024-03-17T09:53:50;6.45;;;4.00;;
31694;SDS011;18289;51.330;4.946;2024-03-17T09:56:18;5.20;;;3.75;;
31694;SDS011;18289;51.330;4.946;2024-03-17T09:58:50;5.75;;;4.00;;
31694;SDS011;18289;51.330;4.946;2024-03-17T10:01:17;4.80;;;3.50;;
31694;SDS011;18289;51.330;4.946;2024-03-17T10:06:24;4.95;;;3.40;;
31694;SDS011;18289;51.330;4.946;2024-03-17T10:09:01;4.75;;;3.20;;
31694;SDS011;18289;51.330;4.946;2024-03-17T10:11:35;4.65;;;3.90;;
31694;SDS011;18289;51.330;4.946;2024-03-17T10:14:05;5.38;;;3.80;;
31694;SDS011;18289;51.330;4.946;2024-03-17T10:16:33;5.68;;;3.95;;
31694;SDS011;18289;51.330;4.946;2024-03-17T10:19:06;6.07;;;3.58;;
31694;SDS011;18289;51.330;4.946;2024-03-17T10:21:44;6.47;;;3.92;;
31694;SDS011;18289;51.330;4.946;2024-03-17T10:26:46;6.65;;;3.50;;
31694;SDS011;18289;51.330;4.946;2024-03-17T10:31:56;4.43;;;4.03;;
31694;SDS011;18289;51.330;4.946;2024-03-17T10:34:23;6.18;;;3.80;;
31694;SDS011;18289;51.330;4.946;2024-03-17T10:36:51;6.70;;;3.50;;
31694;SDS011;18289;51.330;4.946;2024-03-17T10:39:39;4.18;;;3.22;;
31694;SDS011;18289;51.330;4.946;2024-03-17T10:42:06;6.20;;;4.25;;
31694;SDS011;18289;51.330;4.946;2024-03-17T10:44:42;4.35;;;3.10;;
31694;SDS011;18289;51.330;4.946;2024-03-17T10:47:16;5.40;;;3.30;;
31694;SDS011;18289;51.330;4.946;2024-03-17T10:49:52;4.32;;;3.55;;
31694;SDS011;18289;51.330;4.946;2024-03-17T10:52:19;4.63;;;3.40;;
31694;SDS011;18289;51.330;4.946;2024-03-17T10:54:50;4.10;;;3.25;;
31694;SDS011;18289;51.330;4.946;2024-03-17T10:59:48;4.38;;;3.17;;
31694;SDS011;18289;51.330;4.946;2024-03-17T11:02:25;5.93;;;4.38;;
31694;SDS011;18289;51.330;4.946;2024-03-17T11:04:57;6.63;;;4.23;;
31694;SDS011;18289;51.330;4.946;2024-03-17T11:07:27;5.00;;;3.50;;
31694;SDS011;18289;51.330;4.946;2024-03-17T11:09:56;6.80;;;3.88;;
31694;SDS011;18289;51.330;4.946;2024-03-17T11:17:55;5.43;;;2.60;;
31694;SDS011;18289;51.330;4.946;2024-03-17T11:20:42;3.92;;;2.88;;
31694;SDS011;18289;51.330;4.946;2024-03-17T11:25:55;6.43;;;3.22;;
31694;SDS011;18289;51.330;4.946;2024-03-17T11:34:30;6.13;;;3.10;;
31694;SDS011;18289;51.330;4.946;2024-03-17T11:36:59;5.25;;;2.80;;
31694;SDS011;18289;51.330;4.946;2024-03-17T11:42:21;3.95;;;2.92;;
31694;SDS011;18289;51.330;4.946;2024-03-17T11:45:00;4.78;;;3.00;;
31694;SDS011;18289;51.330;4.946;2024-03-17T11:47:38;3.53;;;3.20;;
31694;SDS011;18289;51.330;4.946;2024-03-17T11:50:06;3.67;;;2.90;;
31694;SDS011;18289;51.330;4.946;2024-03-17T11:52:35;9.20;;;3.50;;
31694;SDS011;18289;51.330;4.946;2024-03-17T11:55:01;6.70;;;3.13;;
31694;SDS011;18289;51.330;4.946;2024-03-17T11:57:27;3.90;;;2.88;;
31694;SDS011;18289;51.330;4.946;2024-03-17T11:59:54;4.93;;;3.15;;
31694;SDS011;18289;51.330;4.946;2024-03-17T12:02:24;5.15;;;2.95;;
31694;SDS011;18289;51.330;4.946;2024-03-17T12:04:52;5.57;;;3.45;;
31694;SDS011;18289;51.330;4.946;2024-03-17T12:07:20;3.22;;;2.80;;
31694;SDS011;18289;51.330;4.946;2024-03-17T12:09:48;5.30;;;2.85;;
31694;SDS011;18289;51.330;4.946;2024-03-17T12:14:48;9.20;;;3.05;;
31694;SDS011;18289;51.330;4.946;2024-03-17T12:17:19;3.55;;;2.83;;
31694;SDS011;18289;51.330;4.946;2024-03-17T12:19:46;4.32;;;2.90;;
31694;SDS011;18289;51.330;4.946;2024-03-17T12:22:17;5.07;;;2.65;;
31694;SDS011;18289;51.330;4.946;2024-03-17T12:24:49;4.95;;;2.80;;
31694;SDS011;18289;51.330;4.946;2024-03-17T12:27:22;3.10;;;2.30;;
31694;SDS011;18289;51.330;4.946;2024-03-17T12:29:50;4.20;;;2.80;;
31694;SDS011;18289;51.330;4.946;2024-03-17T12:32:18;4.32;;;2.45;;
31694;SDS011;18289;51.330;4.946;2024-03-17T12:37:19;3.42;;;2.65;;
31694;SDS011;18289;51.330;4.946;2024-03-17T12:39:46;5.40;;;3.25;;
31694;SDS011;18289;51.330;4.946;2024-03-17T12:42:12;5.65;;;2.72;;
31694;SDS011;18289;51.330;4.946;2024-03-17T12:44:40;4.43;;;2.53;;
31694;SDS011;18289;51.330;4.946;2024-03-17T12:47:19;4.95;;;3.00;;
31694;SDS011;18289;51.330;4.946;2024-03-17T12:49:53;3.33;;;2.40;;
31694;SDS011;18289;51.330;4.946;2024-03-17T12:52:30;3.50;;;2.50;;
31694;SDS011;18289;51.330;4.946;2024-03-17T12:57:50;3.08;;;2.50;;
31694;SDS011;18289;51.330;4.946;2024-03-17T13:00:36;4.28;;;2.60;;
31694;SDS011;18289;51.330;4.946;2024-03-17T13:03:02;6.22;;;2.85;;
31694;SDS011;18289;51.330;4.946;2024-03-17T13:05:33;4.63;;;2.80;;
31694;SDS011;18289;51.330;4.946;2024-03-17T13:08:00;4.07;;;3.20;;
31694;SDS011;18289;51.330;4.946;2024-03-17T13:10:27;3.60;;;2.45;;
31694;SDS011;18289;51.330;4.946;2024-03-17T13:13:03;4.68;;;2.38;;
31694;SDS011;18289;51.330;4.946;2024-03-17T13:15:31;3.30;;;2.97;;
31694;SDS011;18289;51.330;4.946;2024-03-17T13:17:59;3.72;;;2.67;;
31694;SDS011;18289;51.330;4.946;2024-03-17T13:20:25;3.75;;;2.45;;
31694;SDS011;18289;51.330;4.946;2024-03-17T13:22:51;2.53;;;2.33;;
31694;SDS011;18289;51.330;4.946;2024-03-17T13:25:17;2.53;;;2.05;;
31694;SDS011;18289;51.330;4.946;2024-03-17T13:27:46;3.83;;;2.72;;
31694;SDS011;18289;51.330;4.946;2024-03-17T13:30:16;3.83;;;2.42;;
31694;SDS011;18289;51.330;4.946;2024-03-17T13:32:43;2.88;;;2.25;;
31694;SDS011;18289;51.330;4.946;2024-03-17T13:35:13;3.08;;;2.40;;
31694;SDS011;18289;51.330;4.946;2024-03-17T13:37:41;3.08;;;2.30;;
31694;SDS011;18289;51.330;4.946;2024-03-17T13:40:07;2.92;;;2.28;;
31694;SDS011;18289;51.330;4.946;2024-03-17T13:42:35;3.63;;;2.05;;
31694;SDS011;18289;51.330;4.946;2024-03-17T13:45:00;3.10;;;2.13;;
31694;SDS011;18289;51.330;4.946;2024-03-17T13:47:26;4.40;;;2.17;;
31694;SDS011;18289;51.330;4.946;2024-03-17T13:49:52;2.83;;;1.60;;
31694;SDS011;18289;51.330;4.946;2024-03-17T13:52:18;3.45;;;1.70;;
31694;SDS011;18289;51.330;4.946;2024-03-17T13:54:44;2.17;;;1.83;;
31694;SDS011;18289;51.330;4.946;2024-03-17T13:57:10;3.83;;;1.90;;
31694;SDS011;18289;51.330;4.946;2024-03-17T13:59:37;1.85;;;1.70;;
31694;SDS011;18289;51.330;4.946;2024-03-17T14:02:03;4.53;;;2.25;;
31694;SDS011;18289;51.330;4.946;2024-03-17T14:04:29;4.28;;;2.13;;
31694;SDS011;18289;51.330;4.946;2024-03-17T14:06:55;2.72;;;1.75;;
31694;SDS011;18289;51.330;4.946;2024-03-17T14:09:21;4.40;;;2.22;;
31694;SDS011;18289;51.330;4.946;2024-03-17T14:11:47;3.60;;;2.10;;
31694;SDS011;18289;51.330;4.946;2024-03-17T14:16:43;2.70;;;2.13;;
31694;SDS011;18289;51.330;4.946;2024-03-17T14:19:09;3.20;;;2.15;;
31694;SDS011;18289;51.330;4.946;2024-03-17T14:21:35;2.47;;;1.95;;
31694;SDS011;18289;51.330;4.946;2024-03-17T14:24:01;2.55;;;1.77;;
31694;SDS011;18289;51.330;4.946;2024-03-17T14:26:31;3.40;;;2.03;;
31694;SDS011;18289;51.330;4.946;2024-03-17T14:28:57;1.95;;;1.75;;
31694;SDS011;18289;51.330;4.946;2024-03-17T14:31:24;3.13;;;1.65;;
31694;SDS011;18289;51.330;4.946;2024-03-17T14:33:51;2.65;;;1.85;;
31694;SDS011;18289;51.330;4.946;2024-03-17T14:36:17;3.70;;;1.92;;
31694;SDS011;18289;51.330;4.946;2024-03-17T14:38:43;2.63;;;1.70;;
31694;SDS011;18289;51.330;4.946;2024-03-17T14:41:09;4.00;;;1.50;;
31694;SDS011;18289;51.330;4.946;2024-03-17T14:43:35;2.72;;;1.70;;
31694;SDS011;18289;51.330;4.946;2024-03-17T14:46:03;2.35;;;1.60;;
31694;SDS011;18289;51.330;4.946;2024-03-17T14:48:29;3.72;;;1.90;;
31694;SDS011;18289;51.330;4.946;2024-03-17T14:50:55;1.75;;;1.52;;
31694;SDS011;18289;51.330;4.946;2024-03-17T14:53:21;4.05;;;1.58;;
31694;SDS011;18289;51.330;4.946;2024-03-17T14:58:17;2.58;;;1.60;;
31694;SDS011;18289;51.330;4.946;2024-03-17T15:00:43;2.00;;;1.80;;
31694;SDS011;18289;51.330;4.946;2024-03-17T15:03:08;3.88;;;1.50;;
31694;SDS011;18289;51.330;4.946;2024-03-17T15:05:34;3.45;;;2.08;;
31694;SDS011;18289;51.330;4.946;2024-03-17T15:08:00;4.47;;;1.95;;
31694;SDS011;18289;51.330;4.946;2024-03-17T15:10:27;3.25;;;1.90;;
31694;SDS011;18289;51.330;4.946;2024-03-17T15:12:52;3.88;;;2.70;;
31694;SDS011;18289;51.330;4.946;2024-03-17T15:15:19;2.10;;;1.90;;
31694;SDS011;18289;51.330;4.946;2024-03-17T15:17:45;2.33;;;1.60;;
31694;SDS011;18289;51.330;4.946;2024-03-17T15:20:11;3.03;;;1.88;;
31694;SDS011;18289;51.330;4.946;2024-03-17T15:22:44;2.20;;;2.00;;
31694;SDS011;18289;51.330;4.946;2024-03-17T15:25:11;2.45;;;1.58;;
31694;SDS011;18289;51.330;4.946;2024-03-17T15:27:37;2.63;;;1.80;;
31694;SDS011;18289;51.330;4.946;2024-03-17T15:30:05;3.97;;;2.20;;
31694;SDS011;18289;51.330;4.946;2024-03-17T15:32:31;3.20;;;2.08;;
31694;SDS011;18289;51.330;4.946;2024-03-17T15:34:57;3.92;;;2.13;;